Impacts TAF Board
For situational awareness. Not to be used for flight planning purposes.
IDs:

KMWH - Moses Lake/Grant Cnt, WA, US

Issued at 1122 UTC 07 Jul 2020
Updated at 1230 UTC 07 Jul 2020
Potential Impact None Slight Moderate High
Time1152Z 07/13Z 07/14Z 07/15Z 07/16Z 07/17Z 07/18Z 07/19Z 07/20Z 07/21Z 07/22Z 07/23Z 08/00Z 08/01Z>>
Type OBS PRVL PRVL PRVL PRVL PRVL PRVL PRVL PRVL PRVL PRVL PRVL PRVL PRVL
VIS 10 >6 >6 >6 >6 >6 >6 >6 >6 >6 >6 >6 >6 >6
CIG -- -- -- -- -- -- -- -- -- -- -- -- -- --
Cover CLR SKC SKC SKC SKC SKC SKC SCT SCT SCT SCT SCT SCT SCT
FltCat VFR VFR VFR VFR VFR VFR VFR VFR VFR VFR VFR VFR VFR VFR
WX -- -- -- -- -- -- -- -- -- -- -- -- -- --
WDir 240 230 230 230 230 230 230 240 240 240 240 240 240 240
WSpd 7 6 6 6 6 6 6 12 12 12 12 12 12 12
WGst -- -- -- -- -- -- -- 20 20 20 20 20 20 20
Raw TAF
KMWH 071122Z 0712/0812 23006KT P6SM SKC
  FM071900 24012G20KT P6SM FEW070 SCT110
  FM080200 28014G19KT P6SM FEW150


Raw METAR
KMWH 071152Z AUTO 24007KT 10SM CLR 16/07 A2984 RMK AO2 SLP098 T01610072 10239 20161 51013
KMWH 071052Z AUTO 23006KT 10SM CLR 17/07 A2982 RMK AO2 SLP091 T01720072
KMWH 070952Z AUTO 23008KT 10SM CLR 18/07 A2982 RMK AO2 SLP091 T01780067

METAR Board
Radar Display
Forecast Discussion
For situational awareness. Not to be used for flight planning purposes.